sensor_id;sensor_type;location;lat;lon;timestamp;P1;durP1;ratioP1;P2;durP2;ratioP2
75937;SDS011;64615;32.062;34.834;2024-01-11T00:00:58;7.25;;;2.50;;
75937;SDS011;64615;32.062;34.834;2024-01-11T00:03:24;7.50;;;2.40;;
75937;SDS011;64615;32.062;34.834;2024-01-11T00:05:50;8.35;;;2.28;;
75937;SDS011;64615;32.062;34.834;2024-01-11T00:08:16;12.18;;;2.80;;
75937;SDS011;64615;32.062;34.834;2024-01-11T00:10:41;7.40;;;2.22;;
75937;SDS011;64615;32.062;34.834;2024-01-11T00:13:07;9.00;;;2.60;;
75937;SDS011;64615;32.062;34.834;2024-01-11T00:15:33;8.90;;;2.13;;
75937;SDS011;64615;32.062;34.834;2024-01-11T00:17:58;7.15;;;2.47;;
75937;SDS011;64615;32.062;34.834;2024-01-11T00:20:24;8.88;;;2.40;;
75937;SDS011;64615;32.062;34.834;2024-01-11T00:22:50;8.80;;;2.03;;
75937;SDS011;64615;32.062;34.834;2024-01-11T00:25:15;10.90;;;2.58;;
75937;SDS011;64615;32.062;34.834;2024-01-11T00:27:41;7.72;;;2.00;;
75937;SDS011;64615;32.062;34.834;2024-01-11T00:30:07;9.70;;;2.20;;
75937;SDS011;64615;32.062;34.834;2024-01-11T00:32:33;7.72;;;2.40;;
75937;SDS011;64615;32.062;34.834;2024-01-11T00:34:58;8.43;;;2.55;;
75937;SDS011;64615;32.062;34.834;2024-01-11T00:37:24;9.70;;;2.38;;
75937;SDS011;64615;32.062;34.834;2024-01-11T00:39:50;8.80;;;2.40;;
75937;SDS011;64615;32.062;34.834;2024-01-11T00:42:16;9.35;;;2.47;;
75937;SDS011;64615;32.062;34.834;2024-01-11T00:44:41;9.85;;;2.47;;
75937;SDS011;64615;32.062;34.834;2024-01-11T00:47:07;9.40;;;2.47;;
75937;SDS011;64615;32.062;34.834;2024-01-11T00:49:32;9.18;;;2.50;;
75937;SDS011;64615;32.062;34.834;2024-01-11T00:51:58;11.85;;;2.60;;
75937;SDS011;64615;32.062;34.834;2024-01-11T00:54:24;9.90;;;2.58;;
75937;SDS011;64615;32.062;34.834;2024-01-11T00:56:50;9.55;;;2.38;;
75937;SDS011;64615;32.062;34.834;2024-01-11T00:59:15;9.55;;;2.30;;
75937;SDS011;64615;32.062;34.834;2024-01-11T01:01:46;10.20;;;2.20;;
75937;SDS011;64615;32.062;34.834;2024-01-11T01:04:14;11.65;;;2.67;;
75937;SDS011;64615;32.062;34.834;2024-01-11T01:06:40;10.73;;;2.65;;
75937;SDS011;64615;32.062;34.834;2024-01-11T01:09:07;10.10;;;2.47;;
75937;SDS011;64615;32.062;34.834;2024-01-11T01:11:32;11.57;;;2.40;;
75937;SDS011;64615;32.062;34.834;2024-01-11T01:13:58;10.30;;;2.22;;
75937;SDS011;64615;32.062;34.834;2024-01-11T01:16:23;11.60;;;2.78;;
75937;SDS011;64615;32.062;34.834;2024-01-11T01:18:49;10.35;;;2.50;;
75937;SDS011;64615;32.062;34.834;2024-01-11T01:21:15;10.25;;;2.33;;
75937;SDS011;64615;32.062;34.834;2024-01-11T01:23:40;10.45;;;2.42;;
75937;SDS011;64615;32.062;34.834;2024-01-11T01:26:06;7.75;;;2.22;;
75937;SDS011;64615;32.062;34.834;2024-01-11T01:28:32;9.27;;;2.42;;
75937;SDS011;64615;32.062;34.834;2024-01-11T01:30:58;9.30;;;2.25;;
75937;SDS011;64615;32.062;34.834;2024-01-11T01:33:23;7.80;;;2.22;;
75937;SDS011;64615;32.062;34.834;2024-01-11T01:35:49;8.63;;;2.30;;
75937;SDS011;64615;32.062;34.834;2024-01-11T01:38:14;6.93;;;2.17;;
75937;SDS011;64615;32.062;34.834;2024-01-11T01:40:42;8.35;;;2.08;;
75937;SDS011;64615;32.062;34.834;2024-01-11T01:43:08;8.27;;;2.10;;
75937;SDS011;64615;32.062;34.834;2024-01-11T01:45:38;6.72;;;2.10;;
75937;SDS011;64615;32.062;34.834;2024-01-11T01:48:03;7.13;;;2.08;;
75937;SDS011;64615;32.062;34.834;2024-01-11T01:50:29;7.97;;;2.20;;
75937;SDS011;64615;32.062;34.834;2024-01-11T01:52:56;7.75;;;2.00;;
75937;SDS011;64615;32.062;34.834;2024-01-11T01:55:23;8.75;;;2.40;;
75937;SDS011;64615;32.062;34.834;2024-01-11T01:57:50;8.73;;;1.95;;
75937;SDS011;64615;32.062;34.834;2024-01-11T02:00:17;8.80;;;1.95;;
75937;SDS011;64615;32.062;34.834;2024-01-11T02:02:44;7.18;;;2.10;;
75937;SDS011;64615;32.062;34.834;2024-01-11T02:05:11;8.02;;;2.20;;
75937;SDS011;64615;32.062;34.834;2024-01-11T02:07:39;7.30;;;1.90;;
75937;SDS011;64615;32.062;34.834;2024-01-11T02:10:05;6.47;;;1.80;;
75937;SDS011;64615;32.062;34.834;2024-01-11T02:12:32;11.35;;;2.25;;
75937;SDS011;64615;32.062;34.834;2024-01-11T02:15:00;8.73;;;2.10;;
75937;SDS011;64615;32.062;34.834;2024-01-11T02:17:28;10.75;;;2.50;;
75937;SDS011;64615;32.062;34.834;2024-01-11T02:19:54;6.70;;;1.90;;
75937;SDS011;64615;32.062;34.834;2024-01-11T02:22:24;7.40;;;1.75;;
75937;SDS011;64615;32.062;34.834;2024-01-11T02:24:57;10.20;;;2.00;;
75937;SDS011;64615;32.062;34.834;2024-01-11T02:27:23;8.38;;;2.15;;
75937;SDS011;64615;32.062;34.834;2024-01-11T02:29:49;5.93;;;1.52;;
75937;SDS011;64615;32.062;34.834;2024-01-11T02:32:15;8.40;;;1.73;;
75937;SDS011;64615;32.062;34.834;2024-01-11T02:34:40;7.63;;;2.25;;
75937;SDS011;64615;32.062;34.834;2024-01-11T02:37:07;6.82;;;1.73;;
75937;SDS011;64615;32.062;34.834;2024-01-11T02:39:32;7.43;;;2.00;;
75937;SDS011;64615;32.062;34.834;2024-01-11T02:41:59;7.45;;;1.60;;
75937;SDS011;64615;32.062;34.834;2024-01-11T02:44:25;9.40;;;1.50;;
75937;SDS011;64615;32.062;34.834;2024-01-11T02:46:51;6.53;;;1.92;;
75937;SDS011;64615;32.062;34.834;2024-01-11T02:49:17;3.80;;;1.20;;
75937;SDS011;64615;32.062;34.834;2024-01-11T02:51:42;5.72;;;1.60;;
75937;SDS011;64615;32.062;34.834;2024-01-11T02:54:08;7.05;;;1.98;;
75937;SDS011;64615;32.062;34.834;2024-01-11T02:56:34;5.60;;;1.65;;
75937;SDS011;64615;32.062;34.834;2024-01-11T02:58:59;5.63;;;1.50;;
75937;SDS011;64615;32.062;34.834;2024-01-11T03:01:25;5.70;;;1.52;;
75937;SDS011;64615;32.062;34.834;2024-01-11T03:03:51;8.98;;;1.58;;
75937;SDS011;64615;32.062;34.834;2024-01-11T03:06:16;10.60;;;1.80;;
75937;SDS011;64615;32.062;34.834;2024-01-11T03:08:47;5.00;;;1.20;;
75937;SDS011;64615;32.062;34.834;2024-01-11T03:11:13;7.18;;;1.65;;
75937;SDS011;64615;32.062;34.834;2024-01-11T03:13:39;8.68;;;1.75;;
75937;SDS011;64615;32.062;34.834;2024-01-11T03:16:05;8.48;;;1.48;;
75937;SDS011;64615;32.062;34.834;2024-01-11T03:18:30;6.00;;;1.50;;
75937;SDS011;64615;32.062;34.834;2024-01-11T03:20:56;9.10;;;1.60;;
75937;SDS011;64615;32.062;34.834;2024-01-11T03:23:22;8.77;;;1.55;;
75937;SDS011;64615;32.062;34.834;2024-01-11T03:25:48;7.25;;;1.60;;
75937;SDS011;64615;32.062;34.834;2024-01-11T03:28:13;6.93;;;1.85;;
75937;SDS011;64615;32.062;34.834;2024-01-11T03:30:39;6.65;;;1.67;;
75937;SDS011;64615;32.062;34.834;2024-01-11T03:33:05;5.50;;;1.50;;
75937;SDS011;64615;32.062;34.834;2024-01-11T03:35:30;6.55;;;1.48;;
75937;SDS011;64615;32.062;34.834;2024-01-11T03:37:56;6.78;;;1.50;;
75937;SDS011;64615;32.062;34.834;2024-01-11T03:40:22;5.35;;;1.52;;
75937;SDS011;64615;32.062;34.834;2024-01-11T03:42:47;10.60;;;1.70;;
75937;SDS011;64615;32.062;34.834;2024-01-11T03:45:13;7.55;;;1.60;;
75937;SDS011;64615;32.062;34.834;2024-01-11T03:47:43;13.63;;;1.55;;
75937;SDS011;64615;32.062;34.834;2024-01-11T03:50:08;14.40;;;2.17;;
75937;SDS011;64615;32.062;34.834;2024-01-11T03:52:34;13.32;;;1.90;;
75937;SDS011;64615;32.062;34.834;2024-01-11T03:55:00;11.75;;;1.45;;
75937;SDS011;64615;32.062;34.834;2024-01-11T03:57:25;26.45;;;2.53;;
75937;SDS011;64615;32.062;34.834;2024-01-11T03:59:51;17.73;;;2.42;;
75937;SDS011;64615;32.062;34.834;2024-01-11T04:02:17;15.43;;;1.83;;
75937;SDS011;64615;32.062;34.834;2024-01-11T04:04:42;15.00;;;2.28;;
75937;SDS011;64615;32.062;34.834;2024-01-11T04:07:08;18.00;;;1.90;;
75937;SDS011;64615;32.062;34.834;2024-01-11T04:09:33;9.77;;;2.00;;
75937;SDS011;64615;32.062;34.834;2024-01-11T04:12:03;13.48;;;1.63;;
75937;SDS011;64615;32.062;34.834;2024-01-11T04:14:29;15.60;;;1.88;;
75937;SDS011;64615;32.062;34.834;2024-01-11T04:16:54;9.95;;;1.80;;
75937;SDS011;64615;32.062;34.834;2024-01-11T04:19:20;20.55;;;2.00;;
75937;SDS011;64615;32.062;34.834;2024-01-11T04:21:45;14.35;;;1.88;;
75937;SDS011;64615;32.062;34.834;2024-01-11T04:24:11;14.35;;;2.25;;
75937;SDS011;64615;32.062;34.834;2024-01-11T04:26:37;10.68;;;1.98;;
75937;SDS011;64615;32.062;34.834;2024-01-11T04:29:02;8.82;;;1.70;;
75937;SDS011;64615;32.062;34.834;2024-01-11T04:31:28;10.15;;;1.77;;
75937;SDS011;64615;32.062;34.834;2024-01-11T04:33:54;22.27;;;2.33;;
75937;SDS011;64615;32.062;34.834;2024-01-11T04:36:19;14.18;;;1.90;;
75937;SDS011;64615;32.062;34.834;2024-01-11T04:38:45;13.75;;;1.95;;
75937;SDS011;64615;32.062;34.834;2024-01-11T04:41:11;8.90;;;1.75;;
75937;SDS011;64615;32.062;34.834;2024-01-11T04:43:38;11.10;;;2.15;;
75937;SDS011;64615;32.062;34.834;2024-01-11T04:46:14;10.75;;;1.65;;
75937;SDS011;64615;32.062;34.834;2024-01-11T04:48:40;9.85;;;2.10;;
75937;SDS011;64615;32.062;34.834;2024-01-11T04:51:06;22.13;;;2.20;;
75937;SDS011;64615;32.062;34.834;2024-01-11T04:53:31;10.65;;;2.00;;
75937;SDS011;64615;32.062;34.834;2024-01-11T04:55:57;23.73;;;2.28;;
75937;SDS011;64615;32.062;34.834;2024-01-11T04:58:23;19.92;;;2.20;;
75937;SDS011;64615;32.062;34.834;2024-01-11T05:00:48;21.13;;;2.55;;
75937;SDS011;64615;32.062;34.834;2024-01-11T05:03:14;30.02;;;2.95;;
75937;SDS011;64615;32.062;34.834;2024-01-11T05:05:40;31.90;;;3.47;;
75937;SDS011;64615;32.062;34.834;2024-01-11T05:08:05;22.27;;;2.13;;
75937;SDS011;64615;32.062;34.834;2024-01-11T05:10:31;14.45;;;2.67;;
75937;SDS011;64615;32.062;34.834;2024-01-11T05:12:57;14.90;;;2.35;;
75937;SDS011;64615;32.062;34.834;2024-01-11T05:15:22;22.90;;;2.58;;
75937;SDS011;64615;32.062;34.834;2024-01-11T05:17:48;18.05;;;2.78;;
75937;SDS011;64615;32.062;34.834;2024-01-11T05:20:14;17.67;;;2.53;;
75937;SDS011;64615;32.062;34.834;2024-01-11T05:22:40;39.47;;;23.48;;
75937;SDS011;64615;32.062;34.834;2024-01-11T05:25:05;19.17;;;6.68;;
75937;SDS011;64615;32.062;34.834;2024-01-11T05:27:31;22.50;;;7.13;;
75937;SDS011;64615;32.062;34.834;2024-01-11T05:29:57;20.17;;;6.70;;
75937;SDS011;64615;32.062;34.834;2024-01-11T05:32:22;22.38;;;5.60;;
75937;SDS011;64615;32.062;34.834;2024-01-11T05:34:48;19.92;;;5.70;;
75937;SDS011;64615;32.062;34.834;2024-01-11T05:37:13;29.63;;;4.93;;
75937;SDS011;64615;32.062;34.834;2024-01-11T05:39:39;19.98;;;4.85;;
75937;SDS011;64615;32.062;34.834;2024-01-11T05:42:05;23.33;;;4.38;;
75937;SDS011;64615;32.062;34.834;2024-01-11T05:44:31;19.95;;;4.03;;
75937;SDS011;64615;32.062;34.834;2024-01-11T05:46:57;18.15;;;3.60;;
75937;SDS011;64615;32.062;34.834;2024-01-11T05:49:23;14.82;;;3.33;;
75937;SDS011;64615;32.062;34.834;2024-01-11T05:51:48;19.90;;;3.03;;
75937;SDS011;64615;32.062;34.834;2024-01-11T05:54:14;16.52;;;3.42;;
75937;SDS011;64615;32.062;34.834;2024-01-11T05:56:39;13.85;;;3.28;;
75937;SDS011;64615;32.062;34.834;2024-01-11T05:59:05;15.68;;;3.25;;
75937;SDS011;64615;32.062;34.834;2024-01-11T06:01:31;14.80;;;3.15;;
75937;SDS011;64615;32.062;34.834;2024-01-11T06:03:57;14.73;;;3.00;;
75937;SDS011;64615;32.062;34.834;2024-01-11T06:06:22;17.98;;;3.47;;
75937;SDS011;64615;32.062;34.834;2024-01-11T06:08:48;11.45;;;2.67;;
75937;SDS011;64615;32.062;34.834;2024-01-11T06:11:13;10.15;;;2.80;;
75937;SDS011;64615;32.062;34.834;2024-01-11T06:13:42;13.32;;;2.90;;
75937;SDS011;64615;32.062;34.834;2024-01-11T06:16:08;11.05;;;2.70;;
75937;SDS011;64615;32.062;34.834;2024-01-11T06:18:33;12.35;;;2.60;;
75937;SDS011;64615;32.062;34.834;2024-01-11T06:20:59;10.82;;;2.72;;
75937;SDS011;64615;32.062;34.834;2024-01-11T06:23:25;12.05;;;2.70;;
75937;SDS011;64615;32.062;34.834;2024-01-11T06:25:50;11.10;;;2.75;;
75937;SDS011;64615;32.062;34.834;2024-01-11T06:28:16;11.25;;;2.63;;
75937;SDS011;64615;32.062;34.834;2024-01-11T06:30:42;7.68;;;2.50;;
75937;SDS011;64615;32.062;34.834;2024-01-11T06:33:08;10.80;;;2.35;;
75937;SDS011;64615;32.062;34.834;2024-01-11T06:35:34;10.68;;;2.40;;
75937;SDS011;64615;32.062;34.834;2024-01-11T06:38:00;13.13;;;2.60;;
75937;SDS011;64615;32.062;34.834;2024-01-11T06:40:25;9.02;;;2.42;;
75937;SDS011;64615;32.062;34.834;2024-01-11T06:42:51;8.75;;;2.20;;
75937;SDS011;64615;32.062;34.834;2024-01-11T06:45:17;7.32;;;2.40;;
75937;SDS011;64615;32.062;34.834;2024-01-11T06:47:44;9.82;;;2.60;;
75937;SDS011;64615;32.062;34.834;2024-01-11T06:50:11;8.93;;;2.45;;
75937;SDS011;64615;32.062;34.834;2024-01-11T06:52:37;11.23;;;2.28;;
75937;SDS011;64615;32.062;34.834;2024-01-11T06:55:03;10.60;;;2.38;;
75937;SDS011;64615;32.062;34.834;2024-01-11T06:57:29;10.45;;;2.45;;
75937;SDS011;64615;32.062;34.834;2024-01-11T06:59:55;9.82;;;2.38;;
75937;SDS011;64615;32.062;34.834;2024-01-11T07:02:21;12.50;;;2.78;;
75937;SDS011;64615;32.062;34.834;2024-01-11T07:04:47;9.18;;;2.50;;
75937;SDS011;64615;32.062;34.834;2024-01-11T07:07:12;11.05;;;2.40;;
75937;SDS011;64615;32.062;34.834;2024-01-11T07:09:38;11.02;;;2.63;;
75937;SDS011;64615;32.062;34.834;2024-01-11T07:12:04;8.95;;;2.47;;
75937;SDS011;64615;32.062;34.834;2024-01-11T07:14:31;10.30;;;2.38;;
75937;SDS011;64615;32.062;34.834;2024-01-11T07:16:57;10.20;;;2.10;;
75937;SDS011;64615;32.062;34.834;2024-01-11T07:19:22;10.23;;;2.15;;
75937;SDS011;64615;32.062;34.834;2024-01-11T07:21:48;9.27;;;2.13;;
75937;SDS011;64615;32.062;34.834;2024-01-11T07:24:14;12.13;;;2.40;;
75937;SDS011;64615;32.062;34.834;2024-01-11T07:26:40;12.02;;;2.33;;
75937;SDS011;64615;32.062;34.834;2024-01-11T07:29:06;9.10;;;2.42;;
75937;SDS011;64615;32.062;34.834;2024-01-11T07:31:32;11.60;;;2.97;;
75937;SDS011;64615;32.062;34.834;2024-01-11T07:33:58;10.15;;;2.30;;
75937;SDS011;64615;32.062;34.834;2024-01-11T07:36:24;9.65;;;2.15;;
75937;SDS011;64615;32.062;34.834;2024-01-11T07:38:50;11.88;;;2.53;;
75937;SDS011;64615;32.062;34.834;2024-01-11T07:41:15;14.13;;;2.40;;
75937;SDS011;64615;32.062;34.834;2024-01-11T07:43:41;13.40;;;2.97;;
75937;SDS011;64615;32.062;34.834;2024-01-11T07:46:07;11.60;;;2.20;;
75937;SDS011;64615;32.062;34.834;2024-01-11T07:48:33;9.68;;;2.20;;
75937;SDS011;64615;32.062;34.834;2024-01-11T07:50:59;11.63;;;2.45;;
75937;SDS011;64615;32.062;34.834;2024-01-11T07:53:24;8.32;;;2.28;;
75937;SDS011;64615;32.062;34.834;2024-01-11T07:55:51;15.15;;;2.92;;
75937;SDS011;64615;32.062;34.834;2024-01-11T07:58:17;12.15;;;2.92;;
75937;SDS011;64615;32.062;34.834;2024-01-11T08:00:43;13.63;;;2.80;;
75937;SDS011;64615;32.062;34.834;2024-01-11T08:03:10;10.05;;;2.22;;
75937;SDS011;64615;32.062;34.834;2024-01-11T08:05:35;12.57;;;2.58;;
75937;SDS011;64615;32.062;34.834;2024-01-11T08:08:01;13.75;;;2.60;;
75937;SDS011;64615;32.062;34.834;2024-01-11T08:10:28;13.15;;;2.17;;
75937;SDS011;64615;32.062;34.834;2024-01-11T08:12:56;12.40;;;2.53;;
75937;SDS011;64615;32.062;34.834;2024-01-11T08:15:22;10.10;;;2.78;;
75937;SDS011;64615;32.062;34.834;2024-01-11T08:17:47;10.82;;;2.53;;
75937;SDS011;64615;32.062;34.834;2024-01-11T08:20:14;11.95;;;2.40;;
75937;SDS011;64615;32.062;34.834;2024-01-11T08:22:40;8.27;;;2.20;;
75937;SDS011;64615;32.062;34.834;2024-01-11T08:25:06;10.43;;;2.58;;
75937;SDS011;64615;32.062;34.834;2024-01-11T08:27:33;9.13;;;2.42;;
75937;SDS011;64615;32.062;34.834;2024-01-11T08:29:58;8.35;;;2.00;;
75937;SDS011;64615;32.062;34.834;2024-01-11T08:32:27;11.40;;;2.00;;
75937;SDS011;64615;32.062;34.834;2024-01-11T08:34:54;6.60;;;2.13;;
75937;SDS011;64615;32.062;34.834;2024-01-11T08:37:19;5.97;;;1.77;;
75937;SDS011;64615;32.062;34.834;2024-01-11T08:39:45;8.68;;;2.25;;
75937;SDS011;64615;32.062;34.834;2024-01-11T08:42:11;6.70;;;1.98;;
75937;SDS011;64615;32.062;34.834;2024-01-11T08:44:40;8.45;;;2.20;;
75937;SDS011;64615;32.062;34.834;2024-01-11T08:47:07;7.50;;;2.10;;
75937;SDS011;64615;32.062;34.834;2024-01-11T08:49:38;9.38;;;1.85;;
75937;SDS011;64615;32.062;34.834;2024-01-11T08:52:04;9.90;;;2.30;;
75937;SDS011;64615;32.062;34.834;2024-01-11T08:54:30;8.98;;;2.05;;
75937;SDS011;64615;32.062;34.834;2024-01-11T08:56:58;8.13;;;1.95;;
75937;SDS011;64615;32.062;34.834;2024-01-11T08:59:24;8.55;;;2.50;;
75937;SDS011;64615;32.062;34.834;2024-01-11T09:01:53;9.95;;;2.20;;
75937;SDS011;64615;32.062;34.834;2024-01-11T09:04:19;9.45;;;2.17;;
75937;SDS011;64615;32.062;34.834;2024-01-11T09:06:45;10.57;;;2.28;;
75937;SDS011;64615;32.062;34.834;2024-01-11T09:09:13;11.88;;;2.53;;
75937;SDS011;64615;32.062;34.834;2024-01-11T09:11:40;10.32;;;2.75;;
75937;SDS011;64615;32.062;34.834;2024-01-11T09:14:08;10.68;;;2.50;;
75937;SDS011;64615;32.062;34.834;2024-01-11T09:16:37;10.70;;;2.60;;
75937;SDS011;64615;32.062;34.834;2024-01-11T09:19:04;10.13;;;2.63;;
75937;SDS011;64615;32.062;34.834;2024-01-11T09:21:30;10.05;;;2.10;;
75937;SDS011;64615;32.062;34.834;2024-01-11T09:23:56;11.45;;;2.80;;
75937;SDS011;64615;32.062;34.834;2024-01-11T09:26:21;8.73;;;2.10;;
75937;SDS011;64615;32.062;34.834;2024-01-11T09:28:48;7.45;;;2.00;;
75937;SDS011;64615;32.062;34.834;2024-01-11T09:31:13;10.05;;;2.42;;
75937;SDS011;64615;32.062;34.834;2024-01-11T09:33:39;9.90;;;2.42;;
75937;SDS011;64615;32.062;34.834;2024-01-11T09:36:05;10.23;;;2.15;;
75937;SDS011;64615;32.062;34.834;2024-01-11T09:38:33;9.55;;;2.30;;
75937;SDS011;64615;32.062;34.834;2024-01-11T09:41:06;8.10;;;2.28;;
75937;SDS011;64615;32.062;34.834;2024-01-11T09:46:00;9.05;;;2.15;;
75937;SDS011;64615;32.062;34.834;2024-01-11T09:48:32;11.43;;;2.35;;
75937;SDS011;64615;32.062;34.834;2024-01-11T09:50:59;12.73;;;2.40;;
75937;SDS011;64615;32.062;34.834;2024-01-11T09:53:28;8.95;;;2.30;;
75937;SDS011;64615;32.062;34.834;2024-01-11T09:58:21;6.82;;;2.20;;
75937;SDS011;64615;32.062;34.834;2024-01-11T10:00:48;8.95;;;2.60;;
75937;SDS011;64615;32.062;34.834;2024-01-11T10:03:19;6.82;;;2.08;;
75937;SDS011;64615;32.062;34.834;2024-01-11T10:05:45;9.15;;;2.67;;
75937;SDS011;64615;32.062;34.834;2024-01-11T10:08:14;8.73;;;2.13;;
75937;SDS011;64615;32.062;34.834;2024-01-11T10:10:40;6.13;;;1.98;;
75937;SDS011;64615;32.062;34.834;2024-01-11T10:13:06;9.95;;;2.40;;
75937;SDS011;64615;32.062;34.834;2024-01-11T10:15:32;10.70;;;2.30;;
75937;SDS011;64615;32.062;34.834;2024-01-11T10:17:57;9.40;;;2.17;;
75937;SDS011;64615;32.062;34.834;2024-01-11T10:20:23;6.65;;;2.00;;
75937;SDS011;64615;32.062;34.834;2024-01-11T10:22:49;7.70;;;2.15;;
75937;SDS011;64615;32.062;34.834;2024-01-11T10:25:16;8.40;;;2.20;;
75937;SDS011;64615;32.062;34.834;2024-01-11T10:27:43;9.82;;;2.25;;
75937;SDS011;64615;32.062;34.834;2024-01-11T10:30:11;9.20;;;2.30;;
75937;SDS011;64615;32.062;34.834;2024-01-11T10:32:51;10.23;;;2.47;;
75937;SDS011;64615;32.062;34.834;2024-01-11T10:35:17;8.38;;;2.10;;
75937;SDS011;64615;32.062;34.834;2024-01-11T10:37:43;6.57;;;1.98;;
75937;SDS011;64615;32.062;34.834;2024-01-11T10:40:10;9.18;;;2.20;;
75937;SDS011;64615;32.062;34.834;2024-01-11T10:42:41;10.23;;;2.22;;
75937;SDS011;64615;32.062;34.834;2024-01-11T10:45:14;8.15;;;2.00;;
75937;SDS011;64615;32.062;34.834;2024-01-11T10:47:54;9.75;;;2.22;;
75937;SDS011;64615;32.062;34.834;2024-01-11T10:50:24;7.05;;;2.15;;
75937;SDS011;64615;32.062;34.834;2024-01-11T10:52:56;7.53;;;2.10;;
75937;SDS011;64615;32.062;34.834;2024-01-11T10:55:32;8.32;;;2.13;;
75937;SDS011;64615;32.062;34.834;2024-01-11T10:58:00;6.82;;;1.95;;
75937;SDS011;64615;32.062;34.834;2024-01-11T11:00:29;11.82;;;2.40;;
75937;SDS011;64615;32.062;34.834;2024-01-11T11:02:56;6.20;;;1.88;;
75937;SDS011;64615;32.062;34.834;2024-01-11T11:05:25;7.00;;;2.17;;
75937;SDS011;64615;32.062;34.834;2024-01-11T11:07:52;10.00;;;2.13;;
75937;SDS011;64615;32.062;34.834;2024-01-11T11:10:20;4.75;;;1.95;;
75937;SDS011;64615;32.062;34.834;2024-01-11T11:12:47;6.82;;;1.83;;
75937;SDS011;64615;32.062;34.834;2024-01-11T11:15:14;8.32;;;2.33;;
75937;SDS011;64615;32.062;34.834;2024-01-11T11:17:40;6.72;;;2.00;;
75937;SDS011;64615;32.062;34.834;2024-01-11T11:20:07;6.75;;;1.90;;
75937;SDS011;64615;32.062;34.834;2024-01-11T11:22:36;5.03;;;1.70;;
75937;SDS011;64615;32.062;34.834;2024-01-11T11:25:03;6.47;;;1.80;;
75937;SDS011;64615;32.062;34.834;2024-01-11T11:27:32;3.50;;;1.33;;
75937;SDS011;64615;32.062;34.834;2024-01-11T11:29:57;6.00;;;1.40;;
75937;SDS011;64615;32.062;34.834;2024-01-11T11:32:36;8.13;;;1.45;;
75937;SDS011;64615;32.062;34.834;2024-01-11T11:35:03;9.75;;;1.90;;
75937;SDS011;64615;32.062;34.834;2024-01-11T11:37:29;5.18;;;1.45;;
75937;SDS011;64615;32.062;34.834;2024-01-11T11:39:57;9.88;;;1.70;;
75937;SDS011;64615;32.062;34.834;2024-01-11T11:42:24;8.18;;;1.50;;
75937;SDS011;64615;32.062;34.834;2024-01-11T11:44:51;10.10;;;2.00;;
75937;SDS011;64615;32.062;34.834;2024-01-11T11:47:21;8.20;;;1.45;;
75937;SDS011;64615;32.062;34.834;2024-01-11T11:52:46;8.50;;;1.50;;
75937;SDS011;64615;32.062;34.834;2024-01-11T11:55:20;9.23;;;1.40;;
75937;SDS011;64615;32.062;34.834;2024-01-11T11:57:47;17.45;;;2.05;;
75937;SDS011;64615;32.062;34.834;2024-01-11T12:00:13;8.25;;;1.67;;
75937;SDS011;64615;32.062;34.834;2024-01-11T12:02:41;10.52;;;1.80;;
75937;SDS011;64615;32.062;34.834;2024-01-11T12:05:07;10.02;;;2.22;;
75937;SDS011;64615;32.062;34.834;2024-01-11T12:07:33;6.10;;;1.42;;
75937;SDS011;64615;32.062;34.834;2024-01-11T12:09:59;12.50;;;1.80;;
75937;SDS011;64615;32.062;34.834;2024-01-11T12:12:25;9.05;;;1.40;;
75937;SDS011;64615;32.062;34.834;2024-01-11T12:14:52;6.15;;;1.42;;
75937;SDS011;64615;32.062;34.834;2024-01-11T12:17:18;5.57;;;1.20;;
75937;SDS011;64615;32.062;34.834;2024-01-11T12:19:44;6.63;;;1.63;;
75937;SDS011;64615;32.062;34.834;2024-01-11T12:22:10;8.57;;;1.77;;
75937;SDS011;64615;32.062;34.834;2024-01-11T12:24:35;7.28;;;1.52;;
75937;SDS011;64615;32.062;34.834;2024-01-11T12:27:02;5.43;;;1.35;;
75937;SDS011;64615;32.062;34.834;2024-01-11T12:29:28;7.43;;;1.60;;
75937;SDS011;64615;32.062;34.834;2024-01-11T12:31:58;5.18;;;1.45;;
75937;SDS011;64615;32.062;34.834;2024-01-11T12:34:24;6.13;;;1.73;;
75937;SDS011;64615;32.062;34.834;2024-01-11T12:36:51;8.25;;;1.50;;
75937;SDS011;64615;32.062;34.834;2024-01-11T12:39:20;8.65;;;1.63;;
75937;SDS011;64615;32.062;34.834;2024-01-11T12:41:50;4.88;;;1.20;;
75937;SDS011;64615;32.062;34.834;2024-01-11T12:44:19;10.27;;;1.30;;
75937;SDS011;64615;32.062;34.834;2024-01-11T12:46:47;5.57;;;1.27;;
75937;SDS011;64615;32.062;34.834;2024-01-11T12:49:14;6.13;;;1.45;;
75937;SDS011;64615;32.062;34.834;2024-01-11T12:51:40;7.43;;;1.42;;
75937;SDS011;64615;32.062;34.834;2024-01-11T12:54:10;5.95;;;1.30;;
75937;SDS011;64615;32.062;34.834;2024-01-11T12:56:41;4.95;;;1.25;;
75937;SDS011;64615;32.062;34.834;2024-01-11T12:59:08;5.68;;;1.20;;
75937;SDS011;64615;32.062;34.834;2024-01-11T13:01:35;6.63;;;1.50;;
75937;SDS011;64615;32.062;34.834;2024-01-11T13:04:01;2.50;;;1.00;;
75937;SDS011;64615;32.062;34.834;2024-01-11T13:06:29;6.07;;;1.52;;
75937;SDS011;64615;32.062;34.834;2024-01-11T13:08:59;5.30;;;1.25;;
75937;SDS011;64615;32.062;34.834;2024-01-11T13:11:26;6.38;;;1.50;;
75937;SDS011;64615;32.062;34.834;2024-01-11T13:13:52;3.70;;;1.20;;
75937;SDS011;64615;32.062;34.834;2024-01-11T13:16:18;4.53;;;1.20;;
75937;SDS011;64615;32.062;34.834;2024-01-11T13:18:45;5.75;;;1.33;;
75937;SDS011;64615;32.062;34.834;2024-01-11T13:21:11;5.53;;;1.33;;
75937;SDS011;64615;32.062;34.834;2024-01-11T13:23:39;5.13;;;1.20;;
75937;SDS011;64615;32.062;34.834;2024-01-11T13:26:06;5.10;;;0.90;;
75937;SDS011;64615;32.062;34.834;2024-01-11T13:28:35;4.95;;;1.23;;
75937;SDS011;64615;32.062;34.834;2024-01-11T13:31:01;4.18;;;1.15;;
75937;SDS011;64615;32.062;34.834;2024-01-11T13:33:27;3.15;;;1.10;;
75937;SDS011;64615;32.062;34.834;2024-01-11T13:35:53;4.45;;;1.00;;
75937;SDS011;64615;32.062;34.834;2024-01-11T13:38:19;5.50;;;1.20;;
75937;SDS011;64615;32.062;34.834;2024-01-11T13:40:45;4.78;;;1.13;;
75937;SDS011;64615;32.062;34.834;2024-01-11T13:43:11;4.03;;;1.02;;
75937;SDS011;64615;32.062;34.834;2024-01-11T13:45:36;4.05;;;1.00;;
75937;SDS011;64615;32.062;34.834;2024-01-11T13:48:02;3.97;;;1.00;;
75937;SDS011;64615;32.062;34.834;2024-01-11T13:50:29;4.70;;;1.15;;
75937;SDS011;64615;32.062;34.834;2024-01-11T13:52:54;4.70;;;0.95;;
75937;SDS011;64615;32.062;34.834;2024-01-11T13:55:20;4.90;;;1.35;;
75937;SDS011;64615;32.062;34.834;2024-01-11T13:57:47;8.20;;;1.17;;
75937;SDS011;64615;32.062;34.834;2024-01-11T14:00:13;7.22;;;1.17;;
75937;SDS011;64615;32.062;34.834;2024-01-11T14:02:39;6.85;;;1.13;;
75937;SDS011;64615;32.062;34.834;2024-01-11T14:05:08;8.25;;;1.40;;
75937;SDS011;64615;32.062;34.834;2024-01-11T14:07:38;7.80;;;1.42;;
75937;SDS011;64615;32.062;34.834;2024-01-11T14:10:05;6.82;;;1.00;;
75937;SDS011;64615;32.062;34.834;2024-01-11T14:12:33;6.00;;;1.10;;
75937;SDS011;64615;32.062;34.834;2024-01-11T14:15:05;9.88;;;1.35;;
75937;SDS011;64615;32.062;34.834;2024-01-11T14:20:02;13.00;;;1.65;;
75937;SDS011;64615;32.062;34.834;2024-01-11T14:22:28;10.02;;;1.40;;
75937;SDS011;64615;32.062;34.834;2024-01-11T14:24:54;8.10;;;1.30;;
75937;SDS011;64615;32.062;34.834;2024-01-11T14:27:20;7.72;;;1.45;;
75937;SDS011;64615;32.062;34.834;2024-01-11T14:29:46;12.13;;;1.52;;
75937;SDS011;64615;32.062;34.834;2024-01-11T14:32:13;8.05;;;1.60;;
75937;SDS011;64615;32.062;34.834;2024-01-11T14:34:41;7.10;;;1.35;;